CFKRB CYQK-CYWG
Flight info
| Callsign | CFKRB |
|---|---|
| Flight time | 0h 27m |
| Altitude | 20000 |
| Route | EMIVA NORAK6 |
| Aircraft | C750/M-SBDE3FGHRWXY/S |
Departure
| Time | 2026-04-21 04:28 |
|---|---|
| Airport | Kenora Airport (CYQK) |
Arrival
| Time | 2026-04-21 04:55 |
|---|---|
| Airport | Winnipeg / James Armstrong Richardson International Airport (CYWG) |
| Time | Latitude | Longitude | Altitude | Speed | Heading |
|---|---|---|---|---|---|
| 2026-04-21 04:20 | 49.78967 | -94.36416 | 1352 ft | 0 kts | 114° |
| 2026-04-21 04:25 | 49.78953 | -94.36424 | 1351 ft | 8 kts | 221° |
| 2026-04-21 04:26 | 49.78844 | -94.36455 | 1349 ft | 21 kts | 128° |
| 2026-04-21 04:26 | 49.78844 | -94.36228 | 1350 ft | 23 kts | 81° |
| 2026-04-21 04:26 | 49.78877 | -94.35980 | 1351 ft | 24 kts | 78° |
| 2026-04-21 04:26 | 49.78914 | -94.35726 | 1351 ft | 26 kts | 77° |
| 2026-04-21 04:27 | 49.78957 | -94.35457 | 1350 ft | 25 kts | 76° |
| 2026-04-21 04:27 | 49.79003 | -94.35200 | 1355 ft | 24 kts | 67° |
| 2026-04-21 04:27 | 49.78997 | -94.35152 | 1355 ft | 11 kts | 218° |
| 2026-04-21 04:27 | 49.78966 | -94.35397 | 1351 ft | 57 kts | 254° |
| 2026-04-21 04:28 | 49.78797 | -94.36523 | 1415 ft | 137 kts | 258° |
| 2026-04-21 04:28 | 49.78577 | -94.37991 | 2022 ft | 147 kts | 259° |
| 2026-04-21 04:28 | 49.78324 | -94.39721 | 2294 ft | 186 kts | 262° |
| 2026-04-21 04:28 | 49.78051 | -94.41829 | 2350 ft | 211 kts | 263° |
| 2026-04-21 04:29 | 49.77770 | -94.44184 | 2780 ft | 237 kts | 264° |
| 2026-04-21 04:29 | 49.77565 | -94.46811 | 3498 ft | 248 kts | 270° |
| 2026-04-21 04:29 | 49.77485 | -94.49446 | 4738 ft | 243 kts | 271° |
| 2026-04-21 04:29 | 49.77360 | -94.52073 | 5821 ft | 246 kts | 268° |
| 2026-04-21 04:30 | 49.77198 | -94.54732 | 6849 ft | 249 kts | 268° |
| 2026-04-21 04:30 | 49.77046 | -94.57408 | 7980 ft | 249 kts | 269° |
| 2026-04-21 04:30 | 49.76901 | -94.60082 | 9147 ft | 250 kts | 270° |
| 2026-04-21 04:30 | 49.76753 | -94.62776 | 10178 ft | 253 kts | 271° |
| 2026-04-21 04:31 | 49.76600 | -94.65597 | 10587 ft | 276 kts | 270° |
| 2026-04-21 04:31 | 49.76431 | -94.68703 | 10725 ft | 304 kts | 270° |
| 2026-04-21 04:31 | 49.76237 | -94.72081 | 11087 ft | 321 kts | 269° |
| 2026-04-21 04:31 | 49.76032 | -94.75519 | 11896 ft | 322 kts | 269° |
| 2026-04-21 04:32 | 49.75833 | -94.79004 | 12563 ft | 328 kts | 269° |
| 2026-04-21 04:32 | 49.75638 | -94.82497 | 13236 ft | 333 kts | 269° |
| 2026-04-21 04:32 | 49.75429 | -94.86136 | 13898 ft | 338 kts | 269° |
| 2026-04-21 04:32 | 49.75215 | -94.89770 | 14541 ft | 341 kts | 269° |
| 2026-04-21 04:33 | 49.75064 | -94.93428 | 15151 ft | 342 kts | 273° |
| 2026-04-21 04:33 | 49.75073 | -94.97072 | 15767 ft | 344 kts | 274° |
| 2026-04-21 04:33 | 49.75085 | -95.00786 | 16420 ft | 348 kts | 273° |
| 2026-04-21 04:33 | 49.75073 | -95.04552 | 17102 ft | 351 kts | 273° |
| 2026-04-21 04:34 | 49.75057 | -95.08345 | 17798 ft | 354 kts | 273° |
| 2026-04-21 04:34 | 49.75049 | -95.12173 | 18468 ft | 358 kts | 273° |
| 2026-04-21 04:34 | 49.75042 | -95.16042 | 19122 ft | 361 kts | 273° |
| 2026-04-21 04:34 | 49.75029 | -95.19930 | 19799 ft | 362 kts | 273° |
| 2026-04-21 04:35 | 49.75015 | -95.23857 | 20241 ft | 372 kts | 273° |
| 2026-04-21 04:35 | 49.75005 | -95.27990 | 20121 ft | 396 kts | 273° |
| 2026-04-21 04:35 | 49.74991 | -95.32348 | 20052 ft | 415 kts | 273° |
| 2026-04-21 04:35 | 49.74964 | -95.36877 | 20055 ft | 424 kts | 272° |
| 2026-04-21 04:36 | 49.74936 | -95.41470 | 20051 ft | 429 kts | 272° |
| 2026-04-21 04:36 | 49.74913 | -95.46096 | 20041 ft | 432 kts | 272° |
| 2026-04-21 04:36 | 49.74889 | -95.50759 | 20043 ft | 433 kts | 272° |
| 2026-04-21 04:36 | 49.74860 | -95.55363 | 20043 ft | 434 kts | 272° |
| 2026-04-21 04:37 | 49.74828 | -95.60038 | 20043 ft | 434 kts | 272° |
| 2026-04-21 04:37 | 49.74797 | -95.64722 | 20043 ft | 434 kts | 272° |
| 2026-04-21 04:37 | 49.74764 | -95.69395 | 20042 ft | 434 kts | 272° |
| 2026-04-21 04:37 | 49.74727 | -95.74063 | 20042 ft | 434 kts | 272° |
| 2026-04-21 04:38 | 49.74688 | -95.78618 | 19876 ft | 405 kts | 272° |
| 2026-04-21 04:38 | 49.74649 | -95.82808 | 19274 ft | 375 kts | 272° |
| 2026-04-21 04:38 | 49.74618 | -95.86677 | 18434 ft | 357 kts | 272° |
| 2026-04-21 04:38 | 49.74591 | -95.90505 | 17038 ft | 355 kts | 272° |
| 2026-04-21 04:39 | 49.74556 | -95.94298 | 15827 ft | 348 kts | 272° |
| 2026-04-21 04:39 | 49.74516 | -95.98010 | 14652 ft | 342 kts | 272° |
| 2026-04-21 04:39 | 49.74478 | -96.01667 | 13497 ft | 337 kts | 272° |
| 2026-04-21 04:39 | 49.74442 | -96.05266 | 12321 ft | 332 kts | 272° |
| 2026-04-21 04:40 | 49.74403 | -96.08681 | 11842 ft | 310 kts | 272° |
| 2026-04-21 04:40 | 49.74366 | -96.11898 | 11401 ft | 292 kts | 271° |
| 2026-04-21 04:40 | 49.74333 | -96.14959 | 11066 ft | 273 kts | 273° |
| 2026-04-21 04:40 | 49.74298 | -96.17763 | 10777 ft | 254 kts | 274° |
| 2026-04-21 04:41 | 49.74270 | -96.20489 | 10066 ft | 254 kts | 274° |
| 2026-04-21 04:41 | 49.74241 | -96.23163 | 9438 ft | 250 kts | 274° |
| 2026-04-21 04:41 | 49.74208 | -96.25837 | 8736 ft | 248 kts | 274° |
| 2026-04-21 04:41 | 49.74175 | -96.28491 | 8033 ft | 247 kts | 273° |
| 2026-04-21 04:42 | 49.74142 | -96.31145 | 7362 ft | 246 kts | 273° |
| 2026-04-21 04:42 | 49.74108 | -96.33781 | 6688 ft | 245 kts | 272° |
| 2026-04-21 04:42 | 49.74073 | -96.36418 | 5996 ft | 245 kts | 272° |
| 2026-04-21 04:42 | 49.74038 | -96.39045 | 5331 ft | 244 kts | 272° |
| 2026-04-21 04:43 | 49.74003 | -96.41651 | 4688 ft | 242 kts | 271° |
| 2026-04-21 04:43 | 49.73967 | -96.44251 | 4002 ft | 242 kts | 271° |
| 2026-04-21 04:43 | 49.73930 | -96.46855 | 3345 ft | 244 kts | 272° |
| 2026-04-21 04:43 | 49.73893 | -96.49469 | 2972 ft | 238 kts | 272° |
| 2026-04-21 04:44 | 49.73854 | -96.52057 | 2978 ft | 241 kts | 272° |
| 2026-04-21 04:44 | 49.73880 | -96.54621 | 2986 ft | 243 kts | 274° |
| 2026-04-21 04:44 | 49.73878 | -96.57234 | 2987 ft | 242 kts | 274° |
| 2026-04-21 04:44 | 49.73872 | -96.59839 | 2988 ft | 242 kts | 273° |
| 2026-04-21 04:45 | 49.73857 | -96.62447 | 2988 ft | 243 kts | 273° |
| 2026-04-21 04:45 | 49.73841 | -96.65062 | 2988 ft | 243 kts | 273° |
| 2026-04-21 04:45 | 49.73825 | -96.67682 | 2990 ft | 244 kts | 273° |
| 2026-04-21 04:45 | 49.73810 | -96.70296 | 2986 ft | 243 kts | 273° |
| 2026-04-21 04:46 | 49.73794 | -96.72904 | 2987 ft | 243 kts | 273° |
| 2026-04-21 04:46 | 49.73776 | -96.75515 | 2984 ft | 243 kts | 273° |
| 2026-04-21 04:46 | 49.73760 | -96.78116 | 2971 ft | 241 kts | 273° |
| 2026-04-21 04:46 | 49.73743 | -96.80746 | 2974 ft | 245 kts | 273° |
| 2026-04-21 04:47 | 49.73724 | -96.83376 | 2975 ft | 245 kts | 273° |
| 2026-04-21 04:47 | 49.73704 | -96.86001 | 3006 ft | 253 kts | 270° |
| 2026-04-21 04:47 | 49.73683 | -96.88653 | 2980 ft | 240 kts | 272° |
| 2026-04-21 04:47 | 49.73664 | -96.91256 | 2977 ft | 243 kts | 273° |
| 2026-04-21 04:48 | 49.73643 | -96.93878 | 2979 ft | 244 kts | 273° |
| 2026-04-21 04:48 | 49.73621 | -96.96504 | 2981 ft | 245 kts | 273° |
| 2026-04-21 04:48 | 49.73599 | -96.99136 | 2978 ft | 245 kts | 273° |
| 2026-04-21 04:48 | 49.73576 | -97.01775 | 2977 ft | 246 kts | 273° |
| 2026-04-21 04:49 | 49.73553 | -97.04383 | 2977 ft | 245 kts | 273° |
| 2026-04-21 04:49 | 49.73527 | -97.06902 | 2965 ft | 223 kts | 273° |
| 2026-04-21 04:49 | 49.73504 | -97.09195 | 2960 ft | 208 kts | 274° |
| 2026-04-21 04:49 | 49.73487 | -97.11421 | 2963 ft | 206 kts | 274° |
| 2026-04-21 04:50 | 49.73467 | -97.13626 | 2968 ft | 204 kts | 274° |
| 2026-04-21 04:50 | 49.73445 | -97.15806 | 2968 ft | 202 kts | 273° |
| 2026-04-21 04:50 | 49.73456 | -97.17974 | 2945 ft | 201 kts | 281° |
| 2026-04-21 04:50 | 49.73847 | -97.20028 | 2975 ft | 201 kts | 290° |
| 2026-04-21 04:51 | 49.74178 | -97.22135 | 2979 ft | 202 kts | 283° |
| 2026-04-21 04:51 | 49.74330 | -97.24300 | 2962 ft | 200 kts | 280° |
| 2026-04-21 04:51 | 49.74953 | -97.26143 | 2911 ft | 195 kts | 320° |
| 2026-04-21 04:51 | 49.76198 | -97.26996 | 2970 ft | 201 kts | 344° |
| 2026-04-21 04:52 | 49.77592 | -97.26842 | 2988 ft | 199 kts | 6° |
| 2026-04-21 04:52 | 49.78465 | -97.26606 | 2979 ft | 187 kts | 4° |
| 2026-04-21 04:52 | 49.79752 | -97.26329 | 2762 ft | 185 kts | 4° |
| 2026-04-21 04:52 | 49.81386 | -97.25964 | 2427 ft | 172 kts | 4° |
| 2026-04-21 04:53 | 49.82545 | -97.25702 | 2192 ft | 162 kts | 4° |
| 2026-04-21 04:53 | 49.83562 | -97.25480 | 1967 ft | 133 kts | 2° |
| 2026-04-21 04:53 | 49.84148 | -97.25345 | 1856 ft | 122 kts | 2° |
| 2026-04-21 04:53 | 49.84982 | -97.25181 | 1674 ft | 125 kts | 0° |
| 2026-04-21 04:54 | 49.85846 | -97.25022 | 1500 ft | 126 kts | 5° |
| 2026-04-21 04:54 | 49.86723 | -97.24831 | 1349 ft | 130 kts | 5° |
| 2026-04-21 04:54 | 49.87626 | -97.24627 | 1151 ft | 133 kts | 5° |
| 2026-04-21 04:54 | 49.88534 | -97.24410 | 991 ft | 132 kts | 6° |
| 2026-04-21 04:55 | 49.89425 | -97.24206 | 883 ft | 128 kts | 6° |
| 2026-04-21 04:55 | 49.90290 | -97.24005 | 778 ft | 120 kts | 6° |
| 2026-04-21 04:55 | 49.90930 | -97.23858 | 783 ft | 64 kts | 9° |
| 2026-04-21 04:55 | 49.91197 | -97.23792 | 780 ft | 16 kts | 26° |
| 2026-04-21 04:56 | 49.91214 | -97.23651 | 779 ft | 13 kts | 103° |
| 2026-04-21 04:56 | 49.91153 | -97.23565 | 780 ft | 11 kts | 154° |
| 2026-04-21 04:56 | 49.91090 | -97.23528 | 781 ft | 9 kts | 152° |
| 2026-04-21 04:56 | 49.91009 | -97.23466 | 779 ft | 18 kts | 154° |
| 2026-04-21 04:57 | 49.90881 | -97.23367 | 778 ft | 19 kts | 152° |
| 2026-04-21 04:57 | 49.90767 | -97.23288 | 777 ft | 17 kts | 156° |
| 2026-04-21 04:57 | 49.90692 | -97.23220 | 778 ft | 11 kts | 135° |